Time;durP1;ratioP1;P1;durP2;ratioP2;P2;SDS_P1;SDS_P2;PMS_P1;PMS_P2;Temp;Humidity;BMP_temperature;BMP_pressure;BME280_temperature;BME280_humidity;BME280_pressure;Samples;Min_cycle;Max_cycle;Signal;HPM_P1;HPM_P2
2023/04/28 00:00:12;;;;;;;63.38;27.13;;;;;;;5.90;100.00;100832.63;5061139;28;20067;-76
2023/04/28 00:02:40;;;;;;;56.70;24.60;;;;;;;5.81;100.00;100813.44;5063050;28;20021;-74
2023/04/28 00:05:07;;;;;;;50.00;25.50;;;;;;;5.88;100.00;100823.78;5063453;28;20032;-74
2023/04/28 00:07:35;;;;;;;52.63;24.85;;;;;;;5.78;100.00;100808.69;5056565;28;20028;-74
2023/04/28 00:10:01;;;;;;;51.88;25.83;;;;;;;5.79;100.00;100806.63;5052066;28;20520;-74
2023/04/28 00:12:27;;;;;;;51.25;26.55;;;;;;;5.83;100.00;100810.16;5052890;28;20498;-75
2023/04/28 00:14:54;;;;;;;52.58;24.50;;;;;;;5.88;100.00;100814.50;5053129;28;20087;-76
2023/04/28 00:17:19;;;;;;;47.92;23.40;;;;;;;5.90;100.00;100815.63;5052322;28;20029;-76
2023/04/28 00:19:46;;;;;;;47.63;24.35;;;;;;;5.94;100.00;100815.53;5053555;28;20025;-75
2023/04/28 00:22:11;;;;;;;51.10;24.10;;;;;;;5.97;100.00;100817.47;5053432;28;20092;-75
2023/04/28 00:24:38;;;;;;;48.92;23.90;;;;;;;5.99;100.00;100815.75;5053080;28;20083;-76
2023/04/28 00:27:03;;;;;;;49.67;25.73;;;;;;;6.05;100.00;100816.81;5051791;28;20442;-76
2023/04/28 00:29:29;;;;;;;51.72;25.27;;;;;;;6.12;100.00;100807.31;5052875;28;20067;-76
2023/04/28 00:31:56;;;;;;;52.03;26.50;;;;;;;6.19;100.00;100807.88;5052020;28;20033;-74
2023/04/28 00:34:22;;;;;;;47.20;24.67;;;;;;;6.21;100.00;100802.56;5051760;28;20033;-74
2023/04/28 00:36:49;;;;;;;52.03;25.27;;;;;;;6.24;100.00;100810.16;5053420;28;20382;-74
2023/04/28 00:39:17;;;;;;;50.05;25.60;;;;;;;6.28;100.00;100803.59;5052746;28;20106;-75
2023/04/28 00:41:43;;;;;;;48.85;25.83;;;;;;;6.25;100.00;100800.41;5053435;28;20087;-74
2023/04/28 00:44:10;;;;;;;51.40;26.55;;;;;;;6.30;100.00;100807.59;5053004;28;20024;-74
2023/04/28 00:46:36;;;;;;;54.95;27.77;;;;;;;6.30;100.00;100806.78;5053416;28;20025;-75
2023/04/28 00:49:22;;;;;;;50.90;24.55;;;;;;;6.28;100.00;100812.91;5052944;28;20042;-76
2023/04/28 00:52:04;;;;;;;44.88;23.85;;;;;;;6.28;100.00;100803.59;5048498;28;20041;-75
2023/04/28 00:54:29;;;;;;;45.15;23.33;;;;;;;6.27;100.00;100799.97;5050344;28;20049;-75
2023/04/28 00:57:12;;;;;;;47.70;25.67;;;;;;;6.26;100.00;100789.84;5051378;28;20090;-76
2023/04/28 00:59:37;;;;;;;55.88;24.40;;;;;;;6.25;100.00;100789.06;5033558;28;20043;-74
2023/04/28 01:02:06;;;;;;;47.60;22.90;;;;;;;6.25;100.00;100791.09;5051939;28;20009;-75
2023/04/28 01:04:32;;;;;;;46.72;23.73;;;;;;;6.23;100.00;100787.94;5052336;28;20021;-75
2023/04/28 01:07:00;;;;;;;40.85;21.52;;;;;;;6.22;100.00;100789.16;5050795;28;20105;-74
2023/04/28 01:09:26;;;;;;;47.25;21.60;;;;;;;6.21;100.00;100779.84;5052198;28;20028;-75
2023/04/28 01:11:54;;;;;;;41.97;21.40;;;;;;;6.23;100.00;100773.75;5051306;28;20052;-76
2023/04/28 01:14:21;;;;;;;39.97;20.98;;;;;;;6.26;100.00;100781.34;5051338;28;20037;-76
2023/04/28 01:16:53;;;;;;;39.42;22.58;;;;;;;6.23;100.00;100779.41;5051428;28;20025;-76
2023/04/28 01:19:22;;;;;;;34.20;18.33;;;;;;;6.22;100.00;100777.81;5051376;28;20420;-76
2023/04/28 01:21:50;;;;;;;39.53;20.92;;;;;;;6.21;100.00;100790.41;5051662;28;20467;-75
2023/04/28 01:24:17;;;;;;;39.83;19.52;;;;;;;6.16;100.00;100774.75;5050803;28;20080;-76
2023/04/28 01:26:44;;;;;;;35.97;19.60;;;;;;;6.20;100.00;100780.31;5051206;28;20033;-75
2023/04/28 01:29:11;;;;;;;35.15;19.42;;;;;;;6.23;100.00;100770.91;5052376;28;20035;-76
2023/04/28 01:31:38;;;;;;;34.38;18.95;;;;;;;6.23;100.00;100768.88;5051012;28;20039;-76
2023/04/28 01:34:03;;;;;;;39.10;18.15;;;;;;;6.22;100.00;100764.44;5052208;28;20036;-75
2023/04/28 01:36:30;;;;;;;33.92;16.70;;;;;;;6.22;100.00;100769.31;5052582;28;20017;-76
2023/04/28 01:38:57;;;;;;;32.05;16.85;;;;;;;6.22;100.00;100760.78;5052230;28;20470;-75
2023/04/28 01:41:23;;;;;;;34.55;17.95;;;;;;;6.23;100.00;100763.19;5051106;28;20021;-75
2023/04/28 01:43:50;;;;;;;31.27;16.45;;;;;;;6.18;100.00;100765.78;5055299;28;20033;-75
2023/04/28 01:46:15;;;;;;;31.50;17.45;;;;;;;6.13;100.00;100763.50;5057100;28;20033;-75
2023/04/28 01:48:41;;;;;;;30.95;17.30;;;;;;;6.09;100.00;100762.81;5058105;28;20025;-77
2023/04/28 01:51:07;;;;;;;35.72;18.35;;;;;;;6.09;100.00;100768.50;5057547;28;20417;-75
2023/04/28 01:53:35;;;;;;;33.63;18.20;;;;;;;6.05;100.00;100759.28;5056195;28;20049;-75
2023/04/28 01:56:01;;;;;;;29.52;16.85;;;;;;;6.05;100.00;100767.78;5054849;28;20020;-75
2023/04/28 01:58:27;;;;;;;29.52;16.63;;;;;;;6.04;100.00;100769.81;5055899;28;20052;-75
2023/04/28 02:00:53;;;;;;;33.78;18.02;;;;;;;6.02;100.00;100760.97;5053840;28;20474;-76
2023/04/28 02:03:19;;;;;;;32.58;17.02;;;;;;;6.02;100.00;100760.97;5055564;28;20082;-76
2023/04/28 02:05:45;;;;;;;31.85;16.67;;;;;;;6.02;100.00;100760.97;5055229;28;20421;-75
2023/04/28 02:08:12;;;;;;;31.63;16.55;;;;;;;6.01;100.00;100759.38;5055653;28;20065;-76
2023/04/28 02:10:39;;;;;;;30.63;16.17;;;;;;;6.02;100.00;100755.31;5054292;28;20058;-76
2023/04/28 02:13:06;;;;;;;28.55;15.75;;;;;;;6.03;100.00;100753.28;5055631;28;20366;-75
2023/04/28 02:15:31;;;;;;;33.28;17.95;;;;;;;5.97;100.00;100753.03;5055197;28;20428;-76
2023/04/28 02:17:57;;;;;;;29.13;16.38;;;;;;;5.95;100.00;100760.38;5054049;28;20033;-76
2023/04/28 02:20:25;;;;;;;28.70;16.00;;;;;;;5.92;100.00;100756.41;5055002;28;20051;-76
2023/04/28 02:22:51;;;;;;;29.38;17.73;;;;;;;5.88;100.00;100755.72;5055409;28;20024;-75
2023/04/28 02:25:18;;;;;;;31.35;17.65;;;;;;;5.91;100.00;100754.03;5053929;28;20040;-75
2023/04/28 02:27:44;;;;;;;34.05;17.65;;;;;;;5.90;100.00;100750.38;5055170;28;20466;-75
2023/04/28 02:30:10;;;;;;;27.42;17.33;;;;;;;5.93;100.00;100749.50;5054886;28;20398;-75
2023/04/28 02:32:36;;;;;;;31.92;16.45;;;;;;;5.92;100.00;100747.13;5052786;28;20033;-75
2023/04/28 02:35:02;;;;;;;31.83;17.85;;;;;;;5.89;100.00;100739.50;5055002;28;20060;-75
2023/04/28 02:37:28;;;;;;;38.50;17.65;;;;;;;5.95;100.00;100749.03;5055472;28;20564;-75
2023/04/28 02:39:55;;;;;;;33.72;17.63;;;;;;;5.94;100.00;100748.28;5054823;28;20028;-74
2023/04/28 02:42:35;;;;;;;34.08;17.92;;;;;;;5.93;100.00;100740.19;5053520;28;20025;-76
2023/04/28 02:45:03;;;;;;;30.25;15.80;;;;;;;5.92;100.00;100744.28;5053657;28;20386;-74
2023/04/28 02:47:29;;;;;;;32.17;17.63;;;;;;;5.87;100.00;100736.31;5054745;28;20100;-74
2023/04/28 02:49:55;;;;;;;32.70;17.48;;;;;;;5.87;100.00;100744.84;5053877;28;20101;-75
2023/04/28 02:52:22;;;;;;;30.25;16.85;;;;;;;5.86;100.00;100734.72;5054426;28;20045;-76
2023/04/28 02:54:53;;;;;;;39.30;17.05;;;;;;;5.82;100.00;100732.81;5054950;28;20044;-74
2023/04/28 02:57:19;;;;;;;30.47;17.80;;;;;;;5.82;100.00;100732.81;5054007;28;20410;-76
2023/04/28 02:59:47;;;;;;;37.75;16.95;;;;;;;5.80;100.00;100737.31;5054166;28;20286;-75
2023/04/28 03:02:14;;;;;;;29.85;17.00;;;;;;;5.78;100.00;100740.63;5054525;28;20421;-75
2023/04/28 03:04:41;;;;;;;30.70;17.05;;;;;;;5.77;100.00;100727.69;5054907;28;20029;-75
2023/04/28 03:07:07;;;;;;;35.28;17.30;;;;;;;5.74;100.00;100737.09;5054266;28;20135;-76
2023/04/28 03:09:33;;;;;;;26.58;16.85;;;;;;;5.71;100.00;100732.31;5054248;28;20356;-75
2023/04/28 03:11:59;;;;;;;26.10;16.42;;;;;;;5.69;100.00;100742.53;5052184;28;20041;-76
2023/04/28 03:14:24;;;;;;;41.30;18.23;;;;;;;5.68;100.00;100746.59;5054617;28;20036;-76
2023/04/28 03:16:50;;;;;;;29.23;18.35;;;;;;;5.64;100.00;100738.19;5053879;28;20044;-74
2023/04/28 03:19:16;;;;;;;34.92;18.95;;;;;;;5.61;100.00;100747.59;5054666;28;20032;-75
2023/04/28 03:21:42;;;;;;;29.15;18.95;;;;;;;5.56;100.00;100744.50;5054039;28;20037;-74
2023/04/28 03:24:08;;;;;;;37.95;20.48;;;;;;;5.45;100.00;100747.63;5052144;28;20055;-75
2023/04/28 03:26:35;;;;;;;33.53;19.02;;;;;;;5.38;100.00;100745.00;5052820;28;20401;-75
2023/04/28 03:29:01;;;;;;;35.10;19.08;;;;;;;5.31;100.00;100743.16;5053206;28;20032;-75
2023/04/28 03:31:29;;;;;;;41.20;20.42;;;;;;;5.31;100.00;100750.84;5053224;28;20033;-75
2023/04/28 03:33:55;;;;;;;33.67;20.05;;;;;;;5.23;100.00;100738.94;5052716;28;20370;-76
2023/04/28 03:36:22;;;;;;;37.22;20.05;;;;;;;5.28;100.00;100741.22;5053790;28;20021;-75
2023/04/28 03:38:49;;;;;;;37.15;20.63;;;;;;;5.31;100.00;100745.19;5053941;28;20069;-76
2023/04/28 03:41:15;;;;;;;38.60;20.65;;;;;;;5.32;100.00;100744.75;5053839;28;20028;-75
2023/04/28 03:43:42;;;;;;;38.08;22.20;;;;;;;5.35;100.00;100746.66;5053811;28;20347;-75
2023/04/28 03:46:08;;;;;;;36.35;20.95;;;;;;;5.36;100.00;100742.59;5053578;28;20063;-75
2023/04/28 03:48:34;;;;;;;41.28;21.20;;;;;;;5.38;100.00;100736.50;5036013;28;20029;-74
2023/04/28 03:51:01;;;;;;;36.40;20.90;;;;;;;5.36;100.00;100731.28;5053502;28;20074;-75
2023/04/28 03:53:27;;;;;;;41.40;23.55;;;;;;;5.40;100.00;100739.66;5051200;28;20114;-75
2023/04/28 03:55:53;;;;;;;43.28;22.38;;;;;;;5.37;100.00;100737.72;5053840;28;20445;-75
2023/04/28 03:58:27;;;;;;;41.53;21.27;;;;;;;5.40;100.00;100739.66;5051993;28;20162;-76
2023/04/28 04:00:54;;;;;;;39.42;21.27;;;;;;;5.47;100.00;100736.66;5053880;28;20033;-75
2023/04/28 04:03:24;;;;;;;39.90;21.05;;;;;;;5.55;100.00;100734.44;5052444;28;20045;-75
2023/04/28 04:05:58;;;;;;;46.67;23.15;;;;;;;5.60;100.00;100745.97;5053715;28;20024;-76
2023/04/28 04:08:38;;;;;;;40.90;22.50;;;;;;;5.66;100.00;100741.38;5051947;28;20032;-75
2023/04/28 04:11:04;;;;;;;40.38;21.25;;;;;;;5.76;100.00;100740.25;5061235;28;20029;-75
2023/04/28 04:13:31;;;;;;;40.80;23.35;;;;;;;5.74;100.00;100739.13;5066261;28;20090;-75
2023/04/28 04:15:57;;;;;;;36.80;22.00;;;;;;;5.87;100.00;100733.47;5067135;28;20045;-76
2023/04/28 04:18:22;;;;;;;39.38;21.67;;;;;;;5.90;100.00;100738.25;5061044;28;20037;-74
2023/04/28 04:20:52;;;;;;;35.42;21.20;;;;;;;6.00;100.00;100739.97;5065938;28;20040;-75
2023/04/28 04:23:18;;;;;;;40.45;20.88;;;;;;;6.05;100.00;100734.53;5065086;28;20073;-75
2023/04/28 04:25:44;;;;;;;39.83;21.90;;;;;;;6.11;100.00;100732.75;5042488;28;20410;-75
2023/04/28 04:28:10;;;;;;;44.85;22.25;;;;;;;6.14;100.00;100731.81;5052829;28;20033;-75
2023/04/28 04:30:37;;;;;;;40.90;21.25;;;;;;;6.18;100.00;100723.22;5053903;28;20024;-74
2023/04/28 04:33:02;;;;;;;47.60;23.17;;;;;;;6.27;100.00;100731.84;5053606;28;20458;-75
2023/04/28 04:35:30;;;;;;;38.90;21.58;;;;;;;6.35;100.00;100730.41;5053191;28;20108;-76
2023/04/28 04:37:57;;;;;;;36.60;22.35;;;;;;;6.16;100.00;100717.19;5052615;28;20101;-75
2023/04/28 04:40:23;;;;;;;37.50;22.17;;;;;;;6.15;100.00;100726.94;5053239;28;20450;-76
2023/04/28 04:42:48;;;;;;;44.72;23.42;;;;;;;6.21;100.00;100725.94;5053171;28;20060;-72
2023/04/28 04:45:22;;;;;;;40.80;22.52;;;;;;;6.35;100.00;100733.25;5053195;28;20095;-72
2023/04/28 04:47:49;;;;;;;39.00;21.88;;;;;;;6.53;100.00;100736.34;5051697;28;20473;-74
2023/04/28 04:50:16;;;;;;;44.70;22.92;;;;;;;6.65;100.00;100723.34;5051566;28;20488;-76
2023/04/28 04:52:41;;;;;;;41.55;23.17;;;;;;;6.75;100.00;100733.56;5052856;28;20048;-75
2023/04/28 04:55:09;;;;;;;39.28;21.92;;;;;;;6.87;100.00;100729.94;5054127;28;20029;-75
2023/04/28 04:57:36;;;;;;;48.22;22.05;;;;;;;6.97;100.00;100730.81;5052745;28;20025;-78
2023/04/28 05:00:05;;;;;;;37.17;21.25;;;;;;;6.94;100.00;100731.72;5052834;28;20029;-79
2023/04/28 05:02:30;;;;;;;36.08;20.63;;;;;;;7.05;100.00;100735.00;5051969;28;20013;-77
2023/04/28 05:04:57;;;;;;;50.38;24.15;;;;;;;7.14;100.00;100729.41;5052991;28;20037;-72
2023/04/28 05:07:22;;;;;;;36.95;21.08;;;;;;;7.24;100.00;100731.06;5052679;28;20032;-75
2023/04/28 05:09:49;;;;;;;36.10;21.60;;;;;;;7.36;100.00;100732.31;5051693;28;20032;-74
2023/04/28 05:12:14;;;;;;;39.83;22.88;;;;;;;7.45;100.00;100727.50;5052496;28;20052;-73
2023/04/28 05:14:41;;;;;;;41.75;22.15;;;;;;;7.50;100.00;100720.41;5017837;28;20056;-73
2023/04/28 05:17:08;;;;;;;37.55;21.42;;;;;;;7.58;100.00;100720.94;5052434;28;20029;-73
2023/04/28 05:19:35;;;;;;;40.20;21.00;;;;;;;7.66;100.00;100730.81;5052657;28;20060;-76
2023/04/28 05:22:03;;;;;;;42.63;23.10;;;;;;;7.70;100.00;100723.72;5052760;28;20478;-73
2023/04/28 05:24:28;;;;;;;43.58;23.05;;;;;;;7.81;100.00;100726.97;5052807;28;20025;-75
2023/04/28 05:26:57;;;;;;;41.90;20.73;;;;;;;7.94;100.00;100727.69;5052594;28;20075;-73
2023/04/28 05:29:22;;;;;;;35.90;19.20;;;;;;;7.93;100.00;100733.84;5056138;28;20123;-74
2023/04/28 05:31:48;;;;;;;42.42;22.10;;;;;;;8.03;100.00;100731.84;5055051;28;20351;-74
2023/04/28 05:34:15;;;;;;;36.80;20.42;;;;;;;8.10;100.00;100729.53;5056549;28;20048;-72
2023/04/28 05:36:43;;;;;;;39.03;20.60;;;;;;;8.16;100.00;100727.69;5055080;28;20024;-73
2023/04/28 05:39:09;;;;;;;35.35;20.58;;;;;;;8.24;100.00;100711.13;5054925;28;20471;-73
2023/04/28 05:41:44;;;;;;;40.35;21.00;;;;;;;8.42;100.00;100719.75;5056034;28;20101;-74
2023/04/28 05:44:18;;;;;;;36.83;21.70;;;;;;;8.47;100.00;100709.78;5055752;28;20029;-73
2023/04/28 05:46:45;;;;;;;35.75;20.30;;;;;;;8.72;99.42;100718.13;5054787;28;20021;-72
2023/04/28 05:49:11;;;;;;;35.55;21.35;;;;;;;8.93;99.56;100731.50;5053812;28;20047;-72
2023/04/28 05:51:37;;;;;;;33.20;20.00;;;;;;;8.99;97.76;100725.97;5053788;28;20371;-74
2023/04/28 05:54:03;;;;;;;36.25;19.83;;;;;;;9.10;96.52;100726.31;5053923;28;20167;-74
2023/04/28 05:56:28;;;;;;;31.25;19.40;;;;;;;9.17;95.38;100723.94;5053394;28;20041;-73
2023/04/28 05:59:03;;;;;;;37.67;20.23;;;;;;;9.43;94.79;100726.50;5053119;28;20124;-73
2023/04/28 06:01:30;;;;;;;40.30;20.80;;;;;;;9.32;94.36;100718.41;5053639;28;20033;-73
2023/04/28 06:04:00;;;;;;;36.85;19.50;;;;;;;9.35;94.80;100723.16;5036016;28;20033;-73
2023/04/28 06:06:34;;;;;;;33.42;18.70;;;;;;;9.38;94.68;100725.06;5053833;28;20058;-73
2023/04/28 06:08:59;;;;;;;34.25;19.85;;;;;;;9.46;93.53;100722.69;5053550;28;20049;-74
2023/04/28 06:11:25;;;;;;;31.48;19.58;;;;;;;9.53;93.66;100717.47;5054445;28;20049;-73
2023/04/28 06:13:52;;;;;;;30.92;19.40;;;;;;;9.72;93.33;100708.88;5054844;28;20029;-72
2023/04/28 06:16:18;;;;;;;36.97;19.92;;;;;;;9.89;92.77;100715.88;5053431;28;20166;-73
2023/04/28 06:18:58;;;;;;;31.83;19.17;;;;;;;10.22;91.72;100713.09;5053170;28;20414;-73
2023/04/28 06:21:26;;;;;;;31.17;19.40;;;;;;;10.42;89.30;100699.88;5054476;28;20020;-73
2023/04/28 06:23:52;;;;;;;36.63;18.52;;;;;;;10.68;88.88;100705.16;5055609;28;20092;-73
2023/04/28 06:26:19;;;;;;;33.25;19.33;;;;;;;10.70;87.24;100691.94;5056045;28;20480;-72
2023/04/28 06:28:44;;;;;;;46.90;20.75;;;;;;;11.06;86.91;100698.72;5053961;28;20109;-73
2023/04/28 06:31:12;;;;;;;31.15;19.00;;;;;;;11.62;85.07;100700.69;5055066;28;20112;-73
2023/04/28 06:33:38;;;;;;;30.35;18.17;;;;;;;12.50;81.83;100701.53;5055050;28;20537;-74
2023/04/28 06:36:04;;;;;;;36.55;18.42;;;;;;;13.32;72.80;100708.19;5054881;28;20097;-73
2023/04/28 06:38:31;;;;;;;33.38;18.10;;;;;;;13.86;69.42;100713.03;5054256;28;20033;-73
2023/04/28 06:40:57;;;;;;;25.75;16.23;;;;;;;14.98;64.08;100711.91;5053981;28;20017;-73
2023/04/28 06:43:22;;;;;;;30.55;17.67;;;;;;;16.11;56.30;100715.53;5054856;28;20130;-72
2023/04/28 06:45:47;;;;;;;30.23;16.45;;;;;;;16.38;53.36;100713.19;5036506;28;20132;-73
2023/04/28 06:48:13;;;;;;;27.20;16.75;;;;;;;16.29;50.79;100713.47;5053961;28;20482;-72
2023/04/28 06:50:41;;;;;;;28.15;16.15;;;;;;;16.17;51.04;100715.53;5054561;28;20524;-73
2023/04/28 06:53:07;;;;;;;25.13;15.20;;;;;;;15.94;49.88;100716.81;5054599;28;20037;-73
2023/04/28 06:55:34;;;;;;;22.05;13.98;;;;;;;15.68;50.09;100717.78;5054481;28;20044;-72
2023/04/28 06:58:01;;;;;;;23.40;14.18;;;;;;;15.56;49.87;100709.59;5053573;28;20090;-72
2023/04/28 07:00:27;;;;;;;20.42;14.07;;;;;;;15.33;49.26;100705.03;5054677;28;20020;-73
2023/04/28 07:02:54;;;;;;;26.02;15.60;;;;;;;15.42;50.26;100711.34;5053258;28;20493;-71
2023/04/28 07:05:22;;;;;;;25.02;14.02;;;;;;;15.35;49.56;100706.09;5054219;28;20029;-74
2023/04/28 07:07:48;;;;;;;20.92;13.73;;;;;;;15.65;48.90;100703.63;5053199;28;20067;-72
2023/04/28 07:10:15;;;;;;;26.80;14.25;;;;;;;16.40;48.94;100694.03;5052310;28;20036;-72
2023/04/28 07:12:40;;;;;;;20.55;12.90;;;;;;;17.29;45.45;100701.81;5054540;28;20078;-72
2023/04/28 07:15:06;;;;;;;23.25;12.77;;;;;;;18.48;43.19;100699.31;5054537;28;20021;-73
2023/04/28 07:17:32;;;;;;;19.73;12.05;;;;;;;19.82;39.89;100698.63;5054007;28;20101;-71
2023/04/28 07:19:57;;;;;;;47.05;14.77;;;;;;;21.26;38.72;100688.84;5054056;28;20039;-74
2023/04/28 07:22:23;;;;;;;47.38;14.98;;;;;;;22.74;35.79;100684.41;5052939;28;20029;-71
2023/04/28 07:24:51;;;;;;;23.58;13.38;;;;;;;23.50;32.90;100677.03;5054256;28;20025;-71
2023/04/28 07:27:18;;;;;;;24.05;13.73;;;;;;;24.34;31.75;100674.47;5052600;28;20029;-72
2023/04/28 07:29:43;;;;;;;23.52;15.57;;;;;;;25.42;31.16;100671.69;5053862;28;20152;-73
2023/04/28 07:32:10;;;;;;;24.88;14.25;;;;;;;25.96;30.41;100667.22;5053803;28;20072;-70
2023/04/28 07:34:43;;;;;;;21.90;12.88;;;;;;;25.55;28.48;100661.94;5053474;28;20031;-72
2023/04/28 07:37:10;;;;;;;21.17;13.10;;;;;;;26.01;28.26;100659.59;5053879;28;20029;-72
2023/04/28 07:39:39;;;;;;;21.40;13.15;;;;;;;26.09;27.69;100655.22;5053837;28;20025;-73
2023/04/28 07:42:06;;;;;;;53.17;15.93;;;;;;;26.24;26.96;100649.31;5053571;28;20021;-72
2023/04/28 07:44:33;;;;;;;22.10;12.38;;;;;;;26.59;27.26;100646.50;5052401;28;20072;-73
2023/04/28 07:47:00;;;;;;;19.10;12.13;;;;;;;27.17;25.54;100645.03;5052131;28;20021;-74
2023/04/28 07:49:30;;;;;;;19.23;11.40;;;;;;;27.81;25.33;100631.38;5051983;28;20033;-72
2023/04/28 07:51:58;;;;;;;15.30;11.00;;;;;;;28.72;25.05;100632.97;5052484;28;20028;-73
2023/04/28 07:54:24;;;;;;;15.70;11.23;;;;;;;29.40;23.81;100619.94;5051855;28;20048;-73
2023/04/28 07:56:50;;;;;;;16.20;10.38;;;;;;;30.26;22.96;100619.09;5053624;28;20109;-72
2023/04/28 07:59:17;;;;;;;16.55;10.23;;;;;;;30.40;21.49;100611.28;5051871;28;20474;-72
2023/04/28 08:01:43;;;;;;;17.80;11.00;;;;;;;29.57;21.90;100610.22;5052931;28;20036;-74
2023/04/28 08:04:10;;;;;;;14.98;9.50;;;;;;;29.65;21.80;100602.75;5053044;28;20135;-72
2023/04/28 08:06:37;;;;;;;18.35;11.07;;;;;;;30.43;21.75;100597.44;5052883;28;20327;-74
2023/04/28 08:09:05;;;;;;;19.55;10.82;;;;;;;30.45;20.93;100606.44;5052268;28;20466;-73
2023/04/28 08:11:35;;;;;;;15.80;11.27;;;;;;;30.25;21.01;100593.19;5052225;28;20017;-73
2023/04/28 08:14:01;;;;;;;15.75;9.50;;;;;;;30.37;21.15;100597.00;5051193;28;20048;-72
2023/04/28 08:16:42;;;;;;;16.00;9.95;;;;;;;30.99;20.76;100595.59;5052954;28;20465;-70
2023/04/28 08:19:08;;;;;;;16.45;9.82;;;;;;;31.71;20.02;100583.53;5053109;28;20126;-73
2023/04/28 08:21:34;;;;;;;14.38;9.65;;;;;;;32.25;19.85;100590.13;5051264;28;20167;-73
2023/04/28 08:24:00;;;;;;;33.78;10.13;;;;;;;32.33;18.23;100583.19;5051786;28;20116;-71
2023/04/28 08:26:26;;;;;;;16.23;9.15;;;;;;;31.57;19.37;100583.34;5051634;28;20586;-74
2023/04/28 08:28:52;;;;;;;15.32;9.40;;;;;;;30.97;19.68;100576.97;5059618;28;20036;-72
2023/04/28 08:31:19;;;;;;;13.63;9.93;;;;;;;30.94;20.49;100578.25;5058352;28;20029;-71
2023/04/28 08:33:47;;;;;;;14.23;9.07;;;;;;;31.27;20.61;100570.22;5058948;28;20079;-72
2023/04/28 08:36:13;;;;;;;13.18;7.50;;;;;;;30.92;19.81;100575.91;5055593;28;20029;-72
2023/04/28 08:38:41;;;;;;;11.57;7.57;;;;;;;30.85;20.10;100564.31;5056836;28;20077;-72
2023/04/28 08:41:06;;;;;;;11.80;6.68;;;;;;;30.73;19.80;100557.56;5052500;28;20037;-71
2023/04/28 08:43:36;;;;;;;11.77;6.53;;;;;;;30.82;18.84;100553.75;5052532;28;20013;-72
2023/04/28 08:46:18;;;;;;;20.35;7.78;;;;;;;30.82;18.95;100559.66;5051808;28;20052;-71
2023/04/28 08:48:45;;;;;;;15.40;7.97;;;;;;;30.72;19.66;100556.00;5052148;28;20029;-72
2023/04/28 08:51:15;;;;;;;12.32;7.07;;;;;;;30.84;19.67;100545.06;5053200;28;20028;-71
2023/04/28 08:53:43;;;;;;;13.33;7.60;;;;;;;31.02;19.18;100558.13;5052479;28;20049;-77
2023/04/28 08:56:12;;;;;;;13.00;7.15;;;;;;;30.07;19.50;100551.31;5052339;28;20290;-77
2023/04/28 08:58:38;;;;;;;16.17;8.40;;;;;;;29.93;19.84;100553.22;5052107;28;20116;-77
2023/04/28 09:01:05;;;;;;;18.70;7.68;;;;;;;29.26;20.66;100546.03;5055188;28;20056;-79
2023/04/28 09:03:31;;;;;;;15.45;7.75;;;;;;;28.03;21.60;100548.03;5056879;28;20033;-78
2023/04/28 09:05:58;;;;;;;11.55;6.65;;;;;;;27.90;21.11;100540.38;5056201;28;20029;-78
2023/04/28 09:08:24;;;;;;;13.05;5.90;;;;;;;28.01;20.67;100559.59;5055856;28;20028;-76
2023/04/28 09:11:12;;;;;;;12.55;7.82;;;;;;;27.93;21.77;100548.00;5053562;28;20357;-77
2023/04/28 09:13:40;;;;;;;11.80;6.68;;;;;;;27.38;22.21;100547.75;5048370;28;20101;-77
2023/04/28 09:16:07;;;;;;;10.93;6.35;;;;;;;27.16;22.04;100541.53;5055146;28;20049;-78
2023/04/28 09:18:32;;;;;;;17.88;7.55;;;;;;;26.73;22.81;100543.00;5055509;28;20517;-76
2023/04/28 09:21:10;;;;;;;16.25;8.43;;;;;;;26.43;23.60;100533.69;5054728;28;20040;-77
2023/04/28 09:23:49;;;;;;;14.35;7.10;;;;;;;25.77;23.99;100538.88;5054296;28;20059;-77
2023/04/28 09:26:18;;;;;;;15.50;7.60;;;;;;;25.52;24.80;100529.25;5053965;28;20029;-78
2023/04/28 09:28:43;;;;;;;12.70;7.22;;;;;;;25.19;24.66;100531.31;5048272;28;20095;-77
2023/04/28 09:31:23;;;;;;;13.00;7.30;;;;;;;24.59;26.12;100515.47;5054281;28;20373;-78
2023/04/28 09:33:57;;;;;;;18.77;7.82;;;;;;;24.34;26.54;100522.53;5054477;28;20025;-78
2023/04/28 09:36:29;;;;;;;17.65;7.57;;;;;;;24.03;26.72;100531.25;5053581;28;20390;-77
2023/04/28 09:38:57;;;;;;;13.68;7.15;;;;;;;23.69;27.75;100525.00;5054248;28;20025;-77
2023/04/28 09:41:39;;;;;;;12.38;7.28;;;;;;;23.52;28.08;100522.56;5036969;28;20041;-77
2023/04/28 09:44:20;;;;;;;9.80;7.07;;;;;;;23.00;27.74;100526.06;5055061;28;20049;-79
2023/04/28 09:46:46;;;;;;;10.23;6.83;;;;;;;22.84;28.21;100510.59;5054335;28;20425;-78
2023/04/28 09:49:14;;;;;;;17.25;7.55;;;;;;;22.77;28.83;100511.34;5054520;28;20060;-77
2023/04/28 09:51:39;;;;;;;20.60;7.20;;;;;;;22.38;28.74;100509.53;5054396;28;20385;-80
2023/04/28 09:54:06;;;;;;;13.02;7.07;;;;;;;21.77;29.49;100514.81;5036806;28;20057;-76
2023/04/28 09:56:37;;;;;;;13.02;7.63;;;;;;;21.11;30.31;100511.34;5054224;28;20059;-75
2023/04/28 09:59:04;;;;;;;;;;;;;;;20.38;31.02;100509.13;5055175;28;20031;-71
2023/04/28 10:01:44;;;;;;;14.40;6.90;;;;;;;19.89;32.42;100494.97;5053912;28;19909;-76
2023/04/28 10:04:10;;;;;;;16.23;7.22;;;;;;;19.90;32.40;100511.03;5054013;28;20386;-73
2023/04/28 10:06:45;;;;;;;13.82;7.13;;;;;;;19.94;33.17;100496.22;5037535;28;20106;-74
2023/04/28 10:09:13;;;;;;;12.60;5.95;;;;;;;20.18;32.85;100498.94;5053416;28;20104;-72
2023/04/28 10:11:39;;;;;;;10.68;5.63;;;;;;;19.94;32.76;100491.22;5054704;28;20455;-72
2023/04/28 10:14:05;;;;;;;16.35;6.05;;;;;;;20.04;33.18;100484.97;5053067;28;20032;-73
2023/04/28 10:16:33;;;;;;;20.40;6.97;;;;;;;20.25;32.64;100494.63;5053255;28;20048;-73
2023/04/28 10:19:06;;;;;;;33.83;7.47;;;;;;;20.23;32.44;100480.66;5054418;28;20096;-72
2023/04/28 10:21:43;;;;;;;10.57;5.53;;;;;;;20.15;32.95;100478.97;5051921;28;20351;-76
2023/04/28 10:24:17;;;;;;;9.57;5.88;;;;;;;19.89;32.92;100468.06;5053065;28;20559;-76
2023/04/28 10:27:04;;;;;;;10.27;5.50;;;;;;;19.49;33.22;100476.66;5053845;28;20083;-76
2023/04/28 10:29:32;;;;;;;12.13;5.50;;;;;;;19.48;33.87;100477.19;5054557;28;20040;-77
2023/04/28 10:32:18;;;;;;;17.60;5.40;;;;;;;19.23;34.93;100478.63;5054473;28;20421;-75
2023/04/28 10:34:43;;;;;;;12.43;5.15;;;;;;;19.07;34.37;100466.72;5054849;28;20127;-73
2023/04/28 10:37:10;;;;;;;17.20;5.20;;;;;;;19.23;35.34;100459.13;5054048;28;20108;-74
2023/04/28 10:39:38;;;;;;;14.75;5.93;;;;;;;19.17;35.06;100454.75;5054377;28;20125;-75
2023/04/28 10:42:19;;;;;;;11.82;4.97;;;;;;;19.11;35.52;100461.41;5054098;28;20029;-74
2023/04/28 10:44:44;;;;;;;31.73;7.95;;;;;;;19.03;34.78;100462.56;5052752;28;20107;-75
2023/04/28 10:47:12;;;;;;;23.27;6.68;;;;;;;18.83;35.46;100452.31;5054167;28;20044;-77
2023/04/28 10:49:57;;;;;;;19.70;6.47;;;;;;;18.71;34.98;100445.13;5054208;28;20404;-74
2023/04/28 10:52:43;;;;;;;21.77;7.63;;;;;;;18.60;35.37;100443.16;5053478;28;20447;-75
2023/04/28 10:55:33;;;;;;;13.93;5.18;;;;;;;18.45;36.20;100442.81;5054426;28;20037;-76
2023/04/28 10:58:18;;;;;;;9.60;4.82;;;;;;;18.50;35.79;100452.75;5054104;28;20040;-77
2023/04/28 11:00:46;;;;;;;12.05;6.00;;;;;;;18.23;35.93;100443.03;5053942;28;20037;-75
2023/04/28 11:03:39;;;;;;;9.35;5.00;;;;;;;18.26;36.67;100431.19;5052801;28;20094;-76
2023/04/28 11:06:28;;;;;;;9.05;4.47;;;;;;;18.33;36.08;100434.81;5052644;28;20390;-77
2023/04/28 11:09:01;;;;;;;6.70;4.22;;;;;;;18.48;35.29;100429.34;5053590;28;20090;-78
2023/04/28 11:11:59;;;;;;;7.03;4.03;;;;;;;18.49;35.29;100425.13;5053164;28;20125;-79
2023/04/28 11:14:24;;;;;;;9.82;4.82;;;;;;;18.58;35.34;100445.03;5059343;28;20040;-79
2023/04/28 11:16:54;;;;;;;11.98;5.43;;;;;;;18.29;34.98;100429.31;5075361;28;20094;-79